sensor_id;sensor_type;location;lat;lon;timestamp;pressure;altitude;pressure_sealevel;temperature;humidity
72959;BME280;60008;50.826;6.896;2023-07-20T00:01:28;100803.63;;;18.07;100.00
72959;BME280;60008;50.826;6.896;2023-07-20T00:04:20;100796.19;;;18.15;100.00
72959;BME280;60008;50.826;6.896;2023-07-20T00:07:12;100801.34;;;18.23;100.00
72959;BME280;60008;50.826;6.896;2023-07-20T00:10:04;100804.03;;;18.23;100.00
72959;BME280;60008;50.826;6.896;2023-07-20T00:12:55;100801.97;;;18.06;100.00
72959;BME280;60008;50.826;6.896;2023-07-20T00:15:46;100807.75;;;17.96;100.00
72959;BME280;60008;50.826;6.896;2023-07-20T00:18:39;100806.09;;;17.89;100.00
72959;BME280;60008;50.826;6.896;2023-07-20T00:21:25;100803.41;;;17.75;100.00
72959;BME280;60008;50.826;6.896;2023-07-20T00:24:17;100799.69;;;17.70;100.00
72959;BME280;60008;50.826;6.896;2023-07-20T00:27:09;100798.06;;;17.69;100.00
72959;BME280;60008;50.826;6.896;2023-07-20T00:29:54;100790.00;;;17.69;100.00
72959;BME280;60008;50.826;6.896;2023-07-20T00:32:45;100793.72;;;17.74;100.00
72959;BME280;60008;50.826;6.896;2023-07-20T00:35:31;100794.13;;;17.71;100.00
72959;BME280;60008;50.826;6.896;2023-07-20T00:38:23;100795.34;;;17.62;100.00
72959;BME280;60008;50.826;6.896;2023-07-20T00:41:07;100793.88;;;17.47;100.00
72959;BME280;60008;50.826;6.896;2023-07-20T00:44:00;100798.03;;;17.62;100.00
72959;BME280;60008;50.826;6.896;2023-07-20T00:46:44;100799.22;;;17.47;100.00
72959;BME280;60008;50.826;6.896;2023-07-20T00:49:38;100794.91;;;17.39;100.00
72959;BME280;60008;50.826;6.896;2023-07-20T00:52:25;100800.03;;;17.41;100.00
72959;BME280;60008;50.826;6.896;2023-07-20T00:55:18;100798.59;;;17.38;100.00
72959;BME280;60008;50.826;6.896;2023-07-20T00:58:04;100799.59;;;17.37;100.00
72959;BME280;60008;50.826;6.896;2023-07-20T01:00:56;100806.22;;;17.48;100.00
72959;BME280;60008;50.826;6.896;2023-07-20T01:03:41;100804.38;;;17.48;100.00
72959;BME280;60008;50.826;6.896;2023-07-20T01:07:03;100791.78;;;17.42;100.00
72959;BME280;60008;50.826;6.896;2023-07-20T01:10:18;100792.63;;;17.43;100.00
72959;BME280;60008;50.826;6.896;2023-07-20T01:13:13;100794.66;;;17.34;100.00
72959;BME280;60008;50.826;6.896;2023-07-20T01:16:05;100806.00;;;17.30;100.00
72959;BME280;60008;50.826;6.896;2023-07-20T01:18:50;100811.16;;;17.31;100.00
72959;BME280;60008;50.826;6.896;2023-07-20T01:21:51;100808.25;;;17.33;100.00
72959;BME280;60008;50.826;6.896;2023-07-20T01:24:52;100802.91;;;17.33;100.00
72959;BME280;60008;50.826;6.896;2023-07-20T01:27:58;100803.13;;;17.31;100.00
72959;BME280;60008;50.826;6.896;2023-07-20T01:34:08;100802.47;;;17.22;100.00
72959;BME280;60008;50.826;6.896;2023-07-20T01:37:03;100795.25;;;17.16;100.00
72959;BME280;60008;50.826;6.896;2023-07-20T01:39:55;100798.72;;;17.10;100.00
72959;BME280;60008;50.826;6.896;2023-07-20T01:42:46;100798.72;;;17.10;100.00
72959;BME280;60008;50.826;6.896;2023-07-20T01:45:32;100799.16;;;17.14;100.00
72959;BME280;60008;50.826;6.896;2023-07-20T01:48:24;100798.25;;;16.94;100.00
72959;BME280;60008;50.826;6.896;2023-07-20T01:51:09;100790.00;;;16.89;100.00
72959;BME280;60008;50.826;6.896;2023-07-20T01:54:01;100788.94;;;16.77;100.00
72959;BME280;60008;50.826;6.896;2023-07-20T01:56:46;100785.03;;;16.79;100.00
72959;BME280;60008;50.826;6.896;2023-07-20T01:59:38;100788.94;;;16.77;100.00
72959;BME280;60008;50.826;6.896;2023-07-20T02:02:30;100794.88;;;16.72;100.00
72959;BME280;60008;50.826;6.896;2023-07-20T02:05:22;100795.69;;;16.73;100.00
72959;BME280;60008;50.826;6.896;2023-07-20T02:08:14;100798.97;;;16.68;100.00
72959;BME280;60008;50.826;6.896;2023-07-20T02:11:01;100796.47;;;16.60;100.00
72959;BME280;60008;50.826;6.896;2023-07-20T02:13:53;100807.84;;;16.41;100.00
72959;BME280;60008;50.826;6.896;2023-07-20T02:16:37;100798.00;;;16.48;100.00
72959;BME280;60008;50.826;6.896;2023-07-20T02:19:30;100794.50;;;16.47;100.00
72959;BME280;60008;50.826;6.896;2023-07-20T02:22:15;100792.03;;;16.46;100.00
72959;BME280;60008;50.826;6.896;2023-07-20T02:25:08;100795.94;;;16.50;100.00
72959;BME280;60008;50.826;6.896;2023-07-20T02:27:55;100792.66;;;16.48;100.00
72959;BME280;60008;50.826;6.896;2023-07-20T02:30:46;100790.81;;;16.48;100.00
72959;BME280;60008;50.826;6.896;2023-07-20T02:33:32;100796.28;;;16.34;100.00
72959;BME280;60008;50.826;6.896;2023-07-20T02:36:23;100783.56;;;16.42;100.00
72959;BME280;60008;50.826;6.896;2023-07-20T02:39:09;100794.25;;;16.36;100.00
72959;BME280;60008;50.826;6.896;2023-07-20T02:42:01;100792.75;;;16.27;100.00
72959;BME280;60008;50.826;6.896;2023-07-20T02:44:46;100785.34;;;16.29;100.00
72959;BME280;60008;50.826;6.896;2023-07-20T02:47:37;100789.28;;;16.33;100.00
72959;BME280;60008;50.826;6.896;2023-07-20T02:50:23;100798.09;;;16.27;100.00
72959;BME280;60008;50.826;6.896;2023-07-20T02:53:13;100797.06;;;16.28;100.00
72959;BME280;60008;50.826;6.896;2023-07-20T02:55:58;100803.63;;;16.25;100.00
72959;BME280;60008;50.826;6.896;2023-07-20T02:58:49;100801.81;;;16.32;100.00
72959;BME280;60008;50.826;6.896;2023-07-20T03:01:34;100800.56;;;16.28;100.00
72959;BME280;60008;50.826;6.896;2023-07-20T03:04:32;100804.28;;;16.27;100.00
72959;BME280;60008;50.826;6.896;2023-07-20T03:07:17;100791.47;;;16.23;100.00
72959;BME280;60008;50.826;6.896;2023-07-20T03:10:09;100792.78;;;16.33;100.00
72959;BME280;60008;50.826;6.896;2023-07-20T03:12:54;100800.56;;;16.28;100.00
72959;BME280;60008;50.826;6.896;2023-07-20T03:15:45;100800.53;;;16.22;100.00
72959;BME280;60008;50.826;6.896;2023-07-20T03:18:30;100803.63;;;16.25;100.00
72959;BME280;60008;50.826;6.896;2023-07-20T03:21:22;100805.03;;;16.21;100.00
72959;BME280;60008;50.826;6.896;2023-07-20T03:24:08;100804.97;;;16.15;100.00
72959;BME280;60008;50.826;6.896;2023-07-20T03:27:00;100792.69;;;16.20;100.00
72959;BME280;60008;50.826;6.896;2023-07-20T03:29:44;100806.06;;;16.20;100.00
72959;BME280;60008;50.826;6.896;2023-07-20T03:32:35;100801.66;;;16.06;100.00
72959;BME280;60008;50.826;6.896;2023-07-20T03:35:21;100808.03;;;16.12;100.00
72959;BME280;60008;50.826;6.896;2023-07-20T03:38:13;100808.03;;;16.12;100.00
72959;BME280;60008;50.826;6.896;2023-07-20T03:40:59;100809.13;;;16.17;100.00
72959;BME280;60008;50.826;6.896;2023-07-20T03:43:50;100814.59;;;16.09;100.00
72959;BME280;60008;50.826;6.896;2023-07-20T03:46:35;100815.88;;;16.13;100.00
72959;BME280;60008;50.826;6.896;2023-07-20T03:49:27;100812.22;;;16.21;100.00
72959;BME280;60008;50.826;6.896;2023-07-20T03:52:12;100809.38;;;16.22;100.00
72959;BME280;60008;50.826;6.896;2023-07-20T03:55:04;100810.78;;;16.18;100.00
72959;BME280;60008;50.826;6.896;2023-07-20T03:57:49;100810.00;;;16.24;100.00
72959;BME280;60008;50.826;6.896;2023-07-20T04:00:49;100806.28;;;16.25;100.00
72959;BME280;60008;50.826;6.896;2023-07-20T04:03:35;100811.22;;;16.22;100.00
72959;BME280;60008;50.826;6.896;2023-07-20T04:06:41;100813.91;;;16.22;100.00
72959;BME280;60008;50.826;6.896;2023-07-20T04:09:29;100819.34;;;16.07;100.00
72959;BME280;60008;50.826;6.896;2023-07-20T04:12:20;100817.09;;;16.11;100.00
72959;BME280;60008;50.826;6.896;2023-07-20T04:15:06;100821.03;;;16.15;100.00
72959;BME280;60008;50.826;6.896;2023-07-20T04:17:58;100824.88;;;16.05;100.00
72959;BME280;60008;50.826;6.896;2023-07-20T04:20:49;100828.88;;;16.16;100.00
72959;BME280;60008;50.826;6.896;2023-07-20T04:23:34;100826.06;;;16.31;100.00
72959;BME280;60008;50.826;6.896;2023-07-20T04:26:26;100825.91;;;16.32;100.00
72959;BME280;60008;50.826;6.896;2023-07-20T04:29:17;100832.56;;;16.43;100.00
72959;BME280;60008;50.826;6.896;2023-07-20T04:32:02;100832.75;;;16.41;100.00
72959;BME280;60008;50.826;6.896;2023-07-20T04:34:53;100835.63;;;16.40;100.00
72959;BME280;60008;50.826;6.896;2023-07-20T04:37:38;100837.44;;;16.33;100.00
72959;BME280;60008;50.826;6.896;2023-07-20T04:40:37;100832.78;;;16.20;100.00
72959;BME280;60008;50.826;6.896;2023-07-20T04:43:21;100837.59;;;16.25;100.00
72959;BME280;60008;50.826;6.896;2023-07-20T04:46:13;100838.53;;;16.17;100.00
72959;BME280;60008;50.826;6.896;2023-07-20T04:49:05;100841.66;;;16.21;100.00
72959;BME280;60008;50.826;6.896;2023-07-20T04:51:51;100835.47;;;16.20;100.00
72959;BME280;60008;50.826;6.896;2023-07-20T04:54:43;100837.84;;;16.36;100.00
72959;BME280;60008;50.826;6.896;2023-07-20T04:57:34;100842.03;;;16.45;100.00
72959;BME280;60008;50.826;6.896;2023-07-20T05:00:19;100840.81;;;16.48;100.00
72959;BME280;60008;50.826;6.896;2023-07-20T05:03:13;100845.56;;;16.52;100.00
72959;BME280;60008;50.826;6.896;2023-07-20T05:06:12;100848.38;;;16.65;100.00
72959;BME280;60008;50.826;6.896;2023-07-20T05:09:04;100833.09;;;16.59;100.00
72959;BME280;60008;50.826;6.896;2023-07-20T05:11:49;100832.34;;;16.72;100.00
72959;BME280;60008;50.826;6.896;2023-07-20T05:14:40;100826.59;;;16.75;100.00
72959;BME280;60008;50.826;6.896;2023-07-20T05:17:27;100828.03;;;16.78;100.00
72959;BME280;60008;50.826;6.896;2023-07-20T05:20:19;100832.81;;;16.82;100.00
72959;BME280;60008;50.826;6.896;2023-07-20T05:23:12;100832.88;;;16.95;100.00
72959;BME280;60008;50.826;6.896;2023-07-20T05:25:58;100840.50;;;16.98;100.00
72959;BME280;60008;50.826;6.896;2023-07-20T05:28:50;100840.47;;;16.92;100.00
72959;BME280;60008;50.826;6.896;2023-07-20T05:31:41;100839.47;;;16.99;100.00
72959;BME280;60008;50.826;6.896;2023-07-20T05:34:33;100840.13;;;17.08;100.00
72959;BME280;60008;50.826;6.896;2023-07-20T05:37:25;100840.56;;;17.18;100.00
72959;BME280;60008;50.826;6.896;2023-07-20T05:40:10;100839.38;;;17.27;100.00
72959;BME280;60008;50.826;6.896;2023-07-20T05:43:03;100840.38;;;17.19;100.00
72959;BME280;60008;50.826;6.896;2023-07-20T05:45:54;100835.47;;;17.30;100.00
72959;BME280;60008;50.826;6.896;2023-07-20T05:48:46;100844.47;;;17.15;100.00
72959;BME280;60008;50.826;6.896;2023-07-20T05:51:31;100847.41;;;17.27;100.00
72959;BME280;60008;50.826;6.896;2023-07-20T05:54:24;100851.72;;;17.21;100.00
72959;BME280;60008;50.826;6.896;2023-07-20T05:57:10;100838.16;;;17.43;100.00
72959;BME280;60008;50.826;6.896;2023-07-20T06:00:02;100847.00;;;17.30;100.00
72959;BME280;60008;50.826;6.896;2023-07-20T06:02:48;100844.84;;;17.60;100.00
72959;BME280;60008;50.826;6.896;2023-07-20T06:05:40;100852.59;;;17.35;100.00
72959;BME280;60008;50.826;6.896;2023-07-20T06:08:32;100856.06;;;17.29;100.00
72959;BME280;60008;50.826;6.896;2023-07-20T06:11:24;100852.06;;;17.66;100.00
72959;BME280;60008;50.826;6.896;2023-07-20T06:14:16;100857.22;;;17.61;100.00
72959;BME280;60008;50.826;6.896;2023-07-20T06:17:01;100860.56;;;17.82;100.00
72959;BME280;60008;50.826;6.896;2023-07-20T06:19:52;100857.06;;;17.95;100.00
72959;BME280;60008;50.826;6.896;2023-07-20T06:22:44;100855.38;;;17.94;100.00
72959;BME280;60008;50.826;6.896;2023-07-20T06:25:29;100857.84;;;17.63;100.00
72959;BME280;60008;50.826;6.896;2023-07-20T06:28:20;100860.72;;;17.55;100.00
72959;BME280;60008;50.826;6.896;2023-07-20T06:31:05;100858.59;;;17.50;100.00
72959;BME280;60008;50.826;6.896;2023-07-20T06:33:57;100854.34;;;17.69;100.00
72959;BME280;60008;50.826;6.896;2023-07-20T06:36:47;100863.16;;;17.50;100.00
72959;BME280;60008;50.826;6.896;2023-07-20T06:39:32;100863.38;;;17.55;100.00
72959;BME280;60008;50.826;6.896;2023-07-20T06:42:27;100867.75;;;17.89;100.00
72959;BME280;60008;50.826;6.896;2023-07-20T06:45:32;100867.75;;;17.89;100.00
72959;BME280;60008;50.826;6.896;2023-07-20T06:48:24;100867.34;;;17.92;100.00
72959;BME280;60008;50.826;6.896;2023-07-20T06:51:16;100871.09;;;17.91;100.00
72959;BME280;60008;50.826;6.896;2023-07-20T06:54:01;100865.91;;;17.89;100.00
72959;BME280;60008;50.826;6.896;2023-07-20T06:56:53;100868.19;;;18.25;100.00
72959;BME280;60008;50.826;6.896;2023-07-20T07:00:02;100874.38;;;18.32;100.00
72959;BME280;60008;50.826;6.896;2023-07-20T07:03:01;100878.31;;;18.56;100.00
72959;BME280;60008;50.826;6.896;2023-07-20T07:06:00;100876.88;;;18.53;100.00
72959;BME280;60008;50.826;6.896;2023-07-20T07:08:52;100872.31;;;18.47;100.00
72959;BME280;60008;50.826;6.896;2023-07-20T07:11:37;100877.47;;;18.68;100.00
72959;BME280;60008;50.826;6.896;2023-07-20T07:14:28;100875.28;;;19.03;100.00
72959;BME280;60008;50.826;6.896;2023-07-20T07:17:13;100873.97;;;19.19;100.00
72959;BME280;60008;50.826;6.896;2023-07-20T07:20:06;100879.81;;;19.16;100.00
72959;BME280;60008;50.826;6.896;2023-07-20T07:22:55;100885.13;;;19.22;100.00
72959;BME280;60008;50.826;6.896;2023-07-20T07:25:47;100875.56;;;18.88;100.00
72959;BME280;60008;50.826;6.896;2023-07-20T07:28:32;100881.53;;;18.84;100.00
72959;BME280;60008;50.826;6.896;2023-07-20T07:31:29;100876.59;;;19.45;100.00
72959;BME280;60008;50.826;6.896;2023-07-20T07:34:15;100893.00;;;19.24;100.00
72959;BME280;60008;50.826;6.896;2023-07-20T07:37:07;100878.28;;;19.39;100.00
72959;BME280;60008;50.826;6.896;2023-07-20T07:39:52;100882.88;;;19.64;100.00
72959;BME280;60008;50.826;6.896;2023-07-20T07:42:44;100877.00;;;19.80;100.00
72959;BME280;60008;50.826;6.896;2023-07-20T07:45:29;100884.59;;;19.89;100.00
72959;BME280;60008;50.826;6.896;2023-07-20T07:48:21;100892.16;;;19.68;100.00
72959;BME280;60008;50.826;6.896;2023-07-20T07:51:06;100896.88;;;19.28;100.00
72959;BME280;60008;50.826;6.896;2023-07-20T07:53:59;100898.44;;;19.04;100.00
72959;BME280;60008;50.826;6.896;2023-07-20T07:56:44;100879.38;;;21.82;100.00
72959;BME280;60008;50.826;6.896;2023-07-20T07:59:35;100887.53;;;22.70;100.00
72959;BME280;60008;50.826;6.896;2023-07-20T08:02:22;100881.00;;;24.91;92.87
72959;BME280;60008;50.826;6.896;2023-07-20T08:05:20;100874.63;;;26.77;82.28
72959;BME280;60008;50.826;6.896;2023-07-20T08:08:05;100876.41;;;24.91;92.52
72959;BME280;60008;50.826;6.896;2023-07-20T08:10:58;100887.72;;;21.81;100.00
72959;BME280;60008;50.826;6.896;2023-07-20T08:13:42;100888.81;;;20.35;100.00
72959;BME280;60008;50.826;6.896;2023-07-20T08:16:34;100882.78;;;24.30;99.74
72959;BME280;60008;50.826;6.896;2023-07-20T08:19:19;100873.13;;;25.54;88.40
72959;BME280;60008;50.826;6.896;2023-07-20T08:22:11;100877.94;;;26.37;81.31
72959;BME280;60008;50.826;6.896;2023-07-20T08:24:57;100871.53;;;27.77;72.69
72959;BME280;60008;50.826;6.896;2023-07-20T08:27:48;100872.06;;;28.50;66.92
72959;BME280;60008;50.826;6.896;2023-07-20T08:30:40;100882.59;;;25.08;79.82
72959;BME280;60008;50.826;6.896;2023-07-20T08:33:32;100889.38;;;23.44;96.60
72959;BME280;60008;50.826;6.896;2023-07-20T08:36:18;100889.47;;;25.91;82.96
72959;BME280;60008;50.826;6.896;2023-07-20T08:39:10;100887.72;;;24.16;90.00
72959;BME280;60008;50.826;6.896;2023-07-20T08:42:03;100886.91;;;26.38;77.67
72959;BME280;60008;50.826;6.896;2023-07-20T08:44:52;100885.25;;;24.65;81.70
72959;BME280;60008;50.826;6.896;2023-07-20T08:47:45;100893.28;;;23.65;91.68
72959;BME280;60008;50.826;6.896;2023-07-20T08:50:34;100886.63;;;24.01;85.70
72959;BME280;60008;50.826;6.896;2023-07-20T08:53:27;100893.41;;;23.87;90.52
72959;BME280;60008;50.826;6.896;2023-07-20T08:56:13;100882.00;;;27.34;71.83
72959;BME280;60008;50.826;6.896;2023-07-20T08:59:06;100884.94;;;23.66;89.52
72959;BME280;60008;50.826;6.896;2023-07-20T09:01:53;100883.91;;;27.28;75.64
72959;BME280;60008;50.826;6.896;2023-07-20T09:04:45;100882.34;;;26.12;72.74
72959;BME280;60008;50.826;6.896;2023-07-20T09:07:43;100875.31;;;27.97;65.22
72959;BME280;60008;50.826;6.896;2023-07-20T09:10:35;100878.53;;;26.81;70.13
72959;BME280;60008;50.826;6.896;2023-07-20T09:13:20;100892.16;;;24.22;79.36
72959;BME280;60008;50.826;6.896;2023-07-20T09:16:15;100880.00;;;25.93;72.19
72959;BME280;60008;50.826;6.896;2023-07-20T09:19:01;100885.66;;;23.62;83.80
72959;BME280;60008;50.826;6.896;2023-07-20T09:21:52;100886.53;;;25.01;81.60
72959;BME280;60008;50.826;6.896;2023-07-20T09:24:38;100883.50;;;27.76;69.59
72959;BME280;60008;50.826;6.896;2023-07-20T09:27:38;100877.78;;;28.64;59.38
72959;BME280;60008;50.826;6.896;2023-07-20T09:30:26;100883.47;;;28.82;59.10
72959;BME280;60008;50.826;6.896;2023-07-20T09:33:19;100880.84;;;29.31;49.85
72959;BME280;60008;50.826;6.896;2023-07-20T09:36:14;100874.25;;;27.98;54.87
72959;BME280;60008;50.826;6.896;2023-07-20T09:39:29;100877.50;;;28.50;52.42
72959;BME280;60008;50.826;6.896;2023-07-20T09:42:15;100883.19;;;27.68;53.45
72959;BME280;60008;50.826;6.896;2023-07-20T09:45:10;100871.38;;;27.27;55.59
72959;BME280;60008;50.826;6.896;2023-07-20T09:48:03;100872.03;;;26.87;57.94
72959;BME280;60008;50.826;6.896;2023-07-20T09:50:59;100878.88;;;27.00;59.79
72959;BME280;60008;50.826;6.896;2023-07-20T09:53:53;100866.91;;;27.93;56.14
72959;BME280;60008;50.826;6.896;2023-07-20T09:56:39;100871.09;;;25.23;65.15
72959;BME280;60008;50.826;6.896;2023-07-20T09:59:32;100874.41;;;23.53;80.17
72959;BME280;60008;50.826;6.896;2023-07-20T10:02:25;100862.94;;;26.30;62.17
72959;BME280;60008;50.826;6.896;2023-07-20T10:05:17;100866.50;;;26.35;59.73
72959;BME280;60008;50.826;6.896;2023-07-20T10:08:11;100867.09;;;27.41;53.92
72959;BME280;60008;50.826;6.896;2023-07-20T10:11:07;100856.72;;;29.87;46.54
72959;BME280;60008;50.826;6.896;2023-07-20T10:13:53;100861.97;;;28.56;51.37
72959;BME280;60008;50.826;6.896;2023-07-20T10:16:55;100854.06;;;26.91;56.72
72959;BME280;60008;50.826;6.896;2023-07-20T10:19:45;100853.25;;;27.93;51.09
72959;BME280;60008;50.826;6.896;2023-07-20T10:22:39;100843.72;;;28.16;51.43
72959;BME280;60008;50.826;6.896;2023-07-20T10:25:26;100834.72;;;29.20;49.84
72959;BME280;60008;50.826;6.896;2023-07-20T10:28:18;100844.91;;;29.97;47.07
72959;BME280;60008;50.826;6.896;2023-07-20T10:31:03;100848.66;;;25.81;55.72
72959;BME280;60008;50.826;6.896;2023-07-20T10:33:58;100844.94;;;27.17;54.03
72959;BME280;60008;50.826;6.896;2023-07-20T10:36:45;100847.75;;;25.70;63.35
72959;BME280;60008;50.826;6.896;2023-07-20T10:39:37;100839.53;;;27.38;56.93
72959;BME280;60008;50.826;6.896;2023-07-20T10:42:21;100836.00;;;26.28;62.60
72959;BME280;60008;50.826;6.896;2023-07-20T10:45:13;100839.34;;;24.42;75.54
72959;BME280;60008;50.826;6.896;2023-07-20T10:47:58;100832.09;;;23.36;76.69
72959;BME280;60008;50.826;6.896;2023-07-20T10:51:12;100842.75;;;23.14;77.53
72959;BME280;60008;50.826;6.896;2023-07-20T10:54:01;100835.09;;;22.48;78.94
72959;BME280;60008;50.826;6.896;2023-07-20T10:56:55;100834.88;;;22.49;80.73
72959;BME280;60008;50.826;6.896;2023-07-20T10:59:40;100843.44;;;22.23;84.29
72959;BME280;60008;50.826;6.896;2023-07-20T11:02:45;100833.34;;;23.90;75.50
72959;BME280;60008;50.826;6.896;2023-07-20T11:05:38;100827.72;;;23.18;76.97
72959;BME280;60008;50.826;6.896;2023-07-20T11:08:38;100836.28;;;24.55;68.55
72959;BME280;60008;50.826;6.896;2023-07-20T11:11:28;100829.34;;;26.98;58.89
72959;BME280;60008;50.826;6.896;2023-07-20T11:14:25;100824.09;;;27.68;59.33
72959;BME280;60008;50.826;6.896;2023-07-20T11:17:17;100828.88;;;26.59;56.17
72959;BME280;60008;50.826;6.896;2023-07-20T11:20:05;100823.59;;;25.74;60.85
72959;BME280;60008;50.826;6.896;2023-07-20T11:23:00;100824.03;;;25.39;63.76
72959;BME280;60008;50.826;6.896;2023-07-20T11:25:45;100824.41;;;24.77;68.25
72959;BME280;60008;50.826;6.896;2023-07-20T11:28:37;100822.88;;;24.26;72.00
72959;BME280;60008;50.826;6.896;2023-07-20T11:31:21;100822.91;;;24.10;70.72
72959;BME280;60008;50.826;6.896;2023-07-20T11:34:13;100819.88;;;23.78;73.23
72959;BME280;60008;50.826;6.896;2023-07-20T11:36:59;100836.88;;;22.66;78.72
72959;BME280;60008;50.826;6.896;2023-07-20T11:39:57;100836.19;;;22.47;84.08
72959;BME280;60008;50.826;6.896;2023-07-20T11:42:49;100833.72;;;22.69;81.23
72959;BME280;60008;50.826;6.896;2023-07-20T11:45:38;100828.44;;;23.02;80.30
72959;BME280;60008;50.826;6.896;2023-07-20T11:48:30;100837.28;;;22.97;75.66
72959;BME280;60008;50.826;6.896;2023-07-20T11:51:16;100831.78;;;22.92;78.12
72959;BME280;60008;50.826;6.896;2023-07-20T11:54:08;100830.28;;;22.85;81.35
72959;BME280;60008;50.826;6.896;2023-07-20T11:57:01;100832.81;;;23.03;75.63
72959;BME280;60008;50.826;6.896;2023-07-20T11:59:57;100824.13;;;23.29;74.31
72959;BME280;60008;50.826;6.896;2023-07-20T12:02:50;100818.28;;;23.49;74.74
72959;BME280;60008;50.826;6.896;2023-07-20T12:05:42;100821.91;;;23.54;74.22
72959;BME280;60008;50.826;6.896;2023-07-20T12:08:45;100826.53;;;22.51;76.92
72959;BME280;60008;50.826;6.896;2023-07-20T12:11:38;100817.06;;;23.28;79.77
72959;BME280;60008;50.826;6.896;2023-07-20T12:14:25;100813.38;;;23.18;74.55
72959;BME280;60008;50.826;6.896;2023-07-20T12:17:17;100809.72;;;23.68;67.84
72959;BME280;60008;50.826;6.896;2023-07-20T12:23:35;100804.81;;;23.99;61.60
72959;BME280;60008;50.826;6.896;2023-07-20T12:26:20;100799.16;;;24.77;61.94
72959;BME280;60008;50.826;6.896;2023-07-20T12:29:13;100789.50;;;24.43;64.29
72959;BME280;60008;50.826;6.896;2023-07-20T12:31:58;100797.25;;;24.34;62.75
72959;BME280;60008;50.826;6.896;2023-07-20T12:34:49;100792.03;;;24.71;62.69
72959;BME280;60008;50.826;6.896;2023-07-20T12:37:34;100793.25;;;24.58;55.01
72959;BME280;60008;50.826;6.896;2023-07-20T12:40:26;100785.88;;;24.75;54.85
72959;BME280;60008;50.826;6.896;2023-07-20T12:43:11;100785.53;;;25.15;56.18
72959;BME280;60008;50.826;6.896;2023-07-20T12:46:02;100791.97;;;25.36;55.15
72959;BME280;60008;50.826;6.896;2023-07-20T12:48:47;100794.16;;;24.09;57.46
72959;BME280;60008;50.826;6.896;2023-07-20T12:51:38;100791.34;;;23.70;61.72
72959;BME280;60008;50.826;6.896;2023-07-20T12:54:23;100785.16;;;24.08;62.22
72959;BME280;60008;50.826;6.896;2023-07-20T12:57:16;100785.75;;;23.32;69.29
72959;BME280;60008;50.826;6.896;2023-07-20T13:00:05;100776.66;;;23.50;71.88
72959;BME280;60008;50.826;6.896;2023-07-20T13:02:57;100782.25;;;23.03;73.59
72959;BME280;60008;50.826;6.896;2023-07-20T13:05:51;100780.38;;;23.04;73.88
72959;BME280;60008;50.826;6.896;2023-07-20T13:08:45;100790.00;;;22.60;78.04
72959;BME280;60008;50.826;6.896;2023-07-20T13:11:37;100780.91;;;23.62;72.52
72959;BME280;60008;50.826;6.896;2023-07-20T13:14:29;100780.78;;;23.86;69.63
72959;BME280;60008;50.826;6.896;2023-07-20T13:17:14;100777.25;;;24.18;70.94
72959;BME280;60008;50.826;6.896;2023-07-20T13:20:08;100773.06;;;24.11;69.02
72959;BME280;60008;50.826;6.896;2023-07-20T13:22:56;100777.47;;;24.17;67.75
72959;BME280;60008;50.826;6.896;2023-07-20T13:25:48;100782.81;;;24.12;69.55
72959;BME280;60008;50.826;6.896;2023-07-20T13:28:35;100775.16;;;24.25;65.06
72959;BME280;60008;50.826;6.896;2023-07-20T13:31:27;100769.53;;;23.60;66.26
72959;BME280;60008;50.826;6.896;2023-07-20T13:34:13;100772.28;;;23.49;68.68
72959;BME280;60008;50.826;6.896;2023-07-20T13:37:04;100765.50;;;23.35;67.94
72959;BME280;60008;50.826;6.896;2023-07-20T13:39:49;100762.25;;;23.33;68.72
72959;BME280;60008;50.826;6.896;2023-07-20T13:42:41;100760.66;;;23.48;70.91
72959;BME280;60008;50.826;6.896;2023-07-20T13:45:27;100767.66;;;23.94;69.72
72959;BME280;60008;50.826;6.896;2023-07-20T13:48:18;100758.97;;;24.31;63.52
72959;BME280;60008;50.826;6.896;2023-07-20T13:51:08;100759.41;;;24.22;66.41
72959;BME280;60008;50.826;6.896;2023-07-20T13:54:11;100760.91;;;23.63;65.66
72959;BME280;60008;50.826;6.896;2023-07-20T13:57:05;100748.63;;;23.73;67.85
72959;BME280;60008;50.826;6.896;2023-07-20T13:59:50;100737.63;;;23.79;70.53
72959;BME280;60008;50.826;6.896;2023-07-20T14:02:44;100743.44;;;23.71;67.45
72959;BME280;60008;50.826;6.896;2023-07-20T14:05:39;100730.81;;;23.77;67.19
72959;BME280;60008;50.826;6.896;2023-07-20T14:08:40;100734.56;;;24.09;68.35
72959;BME280;60008;50.826;6.896;2023-07-20T14:11:26;100727.09;;;23.99;64.45
72959;BME280;60008;50.826;6.896;2023-07-20T14:14:21;100727.19;;;23.71;64.86
72959;BME280;60008;50.826;6.896;2023-07-20T14:17:06;100727.19;;;23.88;64.98
72959;BME280;60008;50.826;6.896;2023-07-20T14:19:58;100719.69;;;23.95;62.62
72959;BME280;60008;50.826;6.896;2023-07-20T14:22:43;100715.53;;;23.87;62.63
72959;BME280;60008;50.826;6.896;2023-07-20T14:25:36;100712.53;;;24.22;57.39
72959;BME280;60008;50.826;6.896;2023-07-20T14:28:22;100718.16;;;23.99;57.97
72959;BME280;60008;50.826;6.896;2023-07-20T14:31:14;100716.56;;;24.03;55.97
72959;BME280;60008;50.826;6.896;2023-07-20T14:33:59;100711.09;;;24.14;56.11
72959;BME280;60008;50.826;6.896;2023-07-20T14:36:51;100708.66;;;23.80;53.87
72959;BME280;60008;50.826;6.896;2023-07-20T14:39:37;100707.78;;;24.29;51.46
72959;BME280;60008;50.826;6.896;2023-07-20T14:42:28;100700.19;;;24.53;52.59
72959;BME280;60008;50.826;6.896;2023-07-20T14:45:13;100702.78;;;24.64;51.56
72959;BME280;60008;50.826;6.896;2023-07-20T14:48:05;100700.50;;;24.78;50.81
72959;BME280;60008;50.826;6.896;2023-07-20T14:50:50;100706.09;;;24.93;50.53
72959;BME280;60008;50.826;6.896;2023-07-20T14:53:45;100702.13;;;24.57;49.46